CYZV

Sept-Îles Airport

Sept-Îles, Quebec, Canada
TAF CYZV 260540Z 2606/2706 08005KT P6SM SCT010 OVC040 TEMPO 2606/2610 5SM -RA BR OVC010 FM261000 08010KT 3SM -RA BR OVC010 TEMPO 2610/2612 3/4SM -DZ BR OVC005 FM261200 09015KT 1/2SM -RA -DZ FG VV002 TEMPO 2612/2615 2SM -RA BR OVC006 FM270500 36010KT 2SM -RA -DZ BR OVC006 RMK NXT FCST BY 261200Z
Issued Valid From Valid To
Apr-26 @ 05:40 UTC
(12 minutes ago)
Apr-26 @ 06:00 UTC
(in 8 minutes)
Apr-27 @ 06:00 UTC
(in 24 hours)
Apr-26 @ 06:00 to Apr-26 @ 10:00
TAF CYZV 260540Z 2606/2706 08005KT P6SM SCT010 OVC040
Wind Visibility Clouds
80° at 5 knots Greater than 6 miles
  • Scattered at 1,000' AGL
  • Overcast at 4,000' AGL
Temporary Apr-26 @ 06:00 to Apr-26 @ 10:00
TEMPO 2606/2610 5SM -RA BR OVC010
Visibility Clouds Conditions
5 miles
  • Overcast at 1,000' AGL
  • Light Rain
  • Mist
From Apr-26 @ 10:00 to Apr-26 @ 12:00
FM261000 08010KT 3SM -RA BR OVC010
Wind Visibility Clouds Conditions
80° at 10 knots 3 miles
  • Overcast at 1,000' AGL
  • Light Rain
  • Mist
Temporary Apr-26 @ 10:00 to Apr-26 @ 12:00
TEMPO 2610/2612 3/4SM -DZ BR OVC005
Visibility Clouds Conditions
3/4 miles
  • Overcast at 500' AGL
  • Light Drizzle
  • Mist
Temporary Apr-26 @ 12:00 to Apr-26 @ 15:00
TEMPO 2612/2615 2SM -RA BR OVC006
Visibility Clouds Conditions
2 miles
  • Overcast at 600' AGL
  • Light Rain
  • Mist
From Apr-26 @ 12:00 to Apr-27 @ 05:00
FM261200 09015KT 1/2SM -RA -DZ FG VV002
Wind Visibility Clouds Conditions
90° at 15 knots 1/2 miles
  • Vertical visibility at 200' AGL
  • Light Rain
  • Light Drizzle
  • Fog
From Apr-27 @ 05:00 to Apr-27 @ 06:00
FM270500 36010KT 2SM -RA -DZ BR OVC006 RMK NXT FCST BY 261200Z
Wind Visibility Clouds Conditions
360° at 10 knots 2 miles
  • Overcast at 600' AGL
  • Light Rain
  • Light Drizzle
  • Mist
TAF CYZV 260540Z 2606/2706 08005KT P6SM SCT010 OVC040 TEMPO 2606/2610 5SM -RA BR OVC010 FM261000 08010KT 3SM -RA BR OVC010 TEMPO 2610/2612 3/4SM -DZ BR OVC005 FM261200 09015KT 1/2SM -RA -DZ FG VV002 TEMPO 2612/2615 2SM -RA BR OVC006 FM270500 36010KT 2SM -RA -DZ BR OVC006 RMK NXT FCST BY 261200Z
Issued Apr-26 @ 05:40 UTC
(12 minutes ago)
Valid From Apr-26 @ 06:00 UTC
(in 8 minutes)
Valid To Apr-27 @ 06:00 UTC
(in 24 hours)
Apr-26 @ 06:00 - Apr-26 @ 10:00
Wind Visibility
80° at 5 knots Greater than 6 miles
Clouds
  • Scattered at 1,000' AGL
  • Overcast at 4,000' AGL
Temporary Apr-26 @ 06:00 - Apr-26 @ 10:00
Clouds
  • Overcast at 1,000' AGL
Conditions
  • Light Rain
  • Mist
From Apr-26 @ 10:00 - Apr-26 @ 12:00
Wind Visibility
80° at 10 knots 3 miles
Clouds
  • Overcast at 1,000' AGL
Conditions
  • Light Rain
  • Mist
Temporary Apr-26 @ 10:00 - Apr-26 @ 12:00
Clouds
  • Overcast at 500' AGL
Conditions
  • Light Drizzle
  • Mist
Temporary Apr-26 @ 12:00 - Apr-26 @ 15:00
Clouds
  • Overcast at 600' AGL
Conditions
  • Light Rain
  • Mist
From Apr-26 @ 12:00 - Apr-27 @ 05:00
Wind Visibility
90° at 15 knots 1/2 miles
Clouds
  • Vertical visibility at 200' AGL
Conditions
  • Light Rain
  • Light Drizzle
  • Fog
From Apr-27 @ 05:00 - Apr-27 @ 06:00
Wind Visibility
360° at 10 knots 2 miles
Clouds
  • Overcast at 600' AGL
Conditions
  • Light Rain
  • Light Drizzle
  • Mist